Time;durP1;ratioP1;P1;durP2;ratioP2;P2;SDS_P1;SDS_P2;PMS_P1;PMS_P2;Temp;Humidity;BMP_temperature;BMP_pressure;BME280_temperature;BME280_humidity;BME280_pressure;Samples;Min_cycle;Max_cycle;Signal;HPM_P1;HPM_P2
2022/01/20 00:02:26;;;;;;;11.80;7.20;;;3.80;99.90;;;;;;5060645;28;20425;-49
2022/01/20 00:05:14;;;;;;;10.30;7.60;;;3.70;99.90;;;;;;5064801;28;20453;-47
2022/01/20 00:08:00;;;;;;;13.60;8.03;;;3.70;99.90;;;;;;5065434;28;20792;-48
2022/01/20 00:27:14;;;;;;;10.33;7.57;;;3.60;99.90;;;;;;5061759;28;20462;-50
2022/01/20 00:30:21;;;;;;;10.60;7.17;;;3.70;99.90;;;;;;5065004;28;20487;-48
2022/01/20 00:32:43;;;;;;;9.90;7.60;;;3.70;99.90;;;;;;5052024;28;21162;-47
2022/01/20 00:37:37;;;;;;;9.73;7.70;;;3.70;99.90;;;;;;5064727;28;20504;-47
2022/01/20 00:40:04;;;;;;;10.70;8.27;;;3.70;99.90;;;;;;5062703;28;20560;-49
2022/01/20 00:42:30;;;;;;;12.43;7.33;;;3.70;99.90;;;;;;5064778;28;20241;-47
2022/01/20 00:44:55;;;;;;;10.00;7.97;;;3.70;99.90;;;;;;5061796;28;20839;-49
2022/01/20 00:47:22;;;;;;;12.70;7.60;;;3.70;99.90;;;;;;5063043;28;20549;-49
2022/01/20 00:49:48;;;;;;;14.27;8.67;;;3.80;99.90;;;;;;5063869;28;20222;-48
2022/01/20 00:52:14;;;;;;;11.93;7.90;;;3.70;99.90;;;;;;5057478;28;20471;-47
2022/01/20 00:54:39;;;;;;;10.97;7.23;;;3.80;99.90;;;;;;5064609;28;20465;-50
2022/01/20 00:57:06;;;;;;;16.60;8.80;;;3.80;99.90;;;;;;5062249;28;20437;-50
2022/01/20 00:59:32;;;;;;;10.27;7.87;;;3.70;99.90;;;;;;5044254;28;20234;-49
2022/01/20 01:01:59;;;;;;;10.23;6.90;;;3.70;99.90;;;;;;5063606;28;20410;-49
2022/01/20 01:04:26;;;;;;;9.30;7.00;;;3.70;99.90;;;;;;5043569;28;20437;-46
2022/01/20 01:07:14;;;;;;;11.57;8.43;;;3.70;99.90;;;;;;5065055;28;20972;-51
2022/01/20 01:09:40;;;;;;;11.30;8.17;;;3.70;99.90;;;;;;5061408;28;20477;-51
2022/01/20 01:12:11;;;;;;;11.63;8.47;;;3.70;99.90;;;;;;5062265;28;20429;-49
2022/01/20 01:14:41;;;;;;;9.27;6.60;;;3.80;99.90;;;;;;5051991;28;20567;-48
2022/01/20 01:24:46;;;;;;;11.73;7.77;;;3.70;99.90;;;;;;5060795;28;20446;-51
2022/01/20 01:27:13;;;;;;;9.53;7.23;;;3.70;99.90;;;;;;5064021;28;20241;-47
2022/01/20 01:33:08;;;;;;;10.03;7.97;;;3.80;99.90;;;;;;5063701;28;20444;-51
2022/01/20 01:35:20;;;;;;;10.00;8.00;;;3.70;99.90;;;;;;5055250;28;20417;-49
2022/01/20 01:40:25;;;;;;;9.40;7.20;;;3.70;99.90;;;;;;5046966;28;21027;-52
2022/01/20 01:42:53;;;;;;;9.63;7.60;;;3.70;99.90;;;;;;5062112;28;20417;-48
2022/01/20 01:45:33;;;;;;;10.83;7.50;;;3.70;99.90;;;;;;5058395;28;20509;-50
2022/01/20 01:48:00;;;;;;;8.90;6.80;;;3.80;99.90;;;;;;5063842;28;20674;-52
2022/01/20 01:50:26;;;;;;;14.53;8.63;;;3.70;99.90;;;;;;5063143;28;21166;-48
2022/01/20 01:52:54;;;;;;;11.63;8.73;;;3.70;99.90;;;;;;5063541;28;20537;-46
2022/01/20 01:55:21;;;;;;;6.77;4.60;;;3.70;99.90;;;;;;5062207;28;20559;-50
2022/01/20 01:57:47;;;;;;;6.53;5.17;;;3.80;99.90;;;;;;5046745;28;20431;-46
2022/01/20 02:00:15;;;;;;;11.00;8.40;;;3.70;99.90;;;;;;5063767;28;20450;-48
2022/01/20 02:02:44;;;;;;;10.83;7.00;;;3.70;99.90;;;;;;5058974;28;20195;-48
2022/01/20 02:05:13;;;;;;;14.57;7.83;;;3.70;99.90;;;;;;5060579;28;21266;-47
2022/01/20 02:20:59;;;;;;;12.77;8.47;;;3.70;99.90;;;;;;5062577;28;20410;-51
2022/01/20 02:23:26;;;;;;;10.47;7.70;;;3.80;99.90;;;;;;5058418;28;20486;-49
2022/01/20 02:25:53;;;;;;;9.07;6.90;;;3.80;99.90;;;;;;5061661;28;20198;-47
2022/01/20 02:28:18;;;;;;;12.70;7.43;;;3.70;99.90;;;;;;5042950;28;20937;-48
2022/01/20 02:30:44;;;;;;;9.60;7.40;;;3.70;99.90;;;;;;5049809;28;20527;-51
2022/01/20 02:33:16;;;;;;;10.80;7.87;;;3.80;99.90;;;;;;5060489;28;21899;-49
2022/01/20 02:35:48;;;;;;;10.13;5.67;;;3.70;99.90;;;;;;5058767;28;20202;-50
2022/01/20 02:38:31;;;;;;;8.43;6.50;;;3.70;99.90;;;;;;5062971;28;20430;-49
2022/01/20 02:46:27;;;;;;;8.77;6.60;;;3.70;99.90;;;;;;5048347;28;20884;-46
2022/01/20 02:48:53;;;;;;;10.57;7.60;;;3.80;99.90;;;;;;5064049;28;20457;-47
2022/01/20 02:51:18;;;;;;;9.77;6.60;;;3.80;99.90;;;;;;5057912;28;20184;-46
2022/01/20 02:53:44;;;;;;;8.97;7.03;;;3.80;99.90;;;;;;5061562;28;20193;-47
2022/01/20 02:56:09;;;;;;;10.33;7.43;;;3.80;99.90;;;;;;5057830;28;20178;-49
2022/01/20 02:58:35;;;;;;;9.60;6.80;;;3.80;99.90;;;;;;5061305;28;20611;-47
2022/01/20 03:01:01;;;;;;;8.60;6.33;;;3.80;99.90;;;;;;5061850;28;20171;-47
2022/01/20 03:03:27;;;;;;;8.40;5.60;;;3.90;99.90;;;;;;5058056;28;20187;-50
2022/01/20 03:05:52;;;;;;;9.23;7.00;;;3.80;99.90;;;;;;5061496;28;20560;-48
2022/01/20 03:08:18;;;;;;;10.07;7.57;;;3.80;99.90;;;;;;5058945;28;20222;-47
2022/01/20 03:10:44;;;;;;;10.40;6.03;;;3.80;99.90;;;;;;5059760;28;20610;-47
2022/01/20 03:13:10;;;;;;;8.03;5.80;;;3.80;99.90;;;;;;5059294;28;20213;-47
2022/01/20 03:15:35;;;;;;;8.70;7.00;;;3.80;99.90;;;;;;5058144;28;20691;-48
2022/01/20 03:18:03;;;;;;;10.70;6.57;;;3.70;99.90;;;;;;5064035;28;20662;-46
2022/01/20 03:20:29;;;;;;;9.73;7.07;;;3.80;99.90;;;;;;5041140;28;20486;-49
2022/01/20 03:22:54;;;;;;;7.77;5.90;;;3.80;99.90;;;;;;5061869;28;20847;-47
2022/01/20 03:25:20;;;;;;;12.37;7.10;;;3.80;99.90;;;;;;5060962;28;20881;-46
2022/01/20 03:27:45;;;;;;;8.47;6.20;;;3.80;99.90;;;;;;5050046;28;20187;-47
2022/01/20 03:30:11;;;;;;;10.07;7.10;;;3.80;99.90;;;;;;5061705;28;20684;-47
2022/01/20 03:32:37;;;;;;;9.77;6.80;;;3.80;99.90;;;;;;5054731;28;20215;-47
2022/01/20 03:35:04;;;;;;;8.80;6.40;;;3.80;99.90;;;;;;5061030;28;20425;-47
2022/01/20 03:37:29;;;;;;;9.40;5.60;;;3.80;99.90;;;;;;5056128;28;20194;-46
2022/01/20 03:39:55;;;;;;;9.80;5.97;;;3.80;99.90;;;;;;5059404;28;20499;-46
2022/01/20 03:42:21;;;;;;;11.17;7.83;;;3.80;99.90;;;;;;5059950;28;20198;-47
2022/01/20 03:44:46;;;;;;;9.23;6.77;;;3.80;99.90;;;;;;5058984;28;20196;-47
2022/01/20 03:47:12;;;;;;;7.87;6.13;;;3.70;99.90;;;;;;5062420;28;20183;-49
2022/01/20 03:49:53;;;;;;;9.20;7.40;;;3.70;99.90;;;;;;5040564;28;20218;-47
2022/01/20 03:52:19;;;;;;;8.10;5.83;;;3.80;99.90;;;;;;5060766;28;20565;-48
2022/01/20 03:54:44;;;;;;;10.30;6.80;;;3.80;99.90;;;;;;5059298;28;20417;-46
2022/01/20 03:57:10;;;;;;;10.07;7.33;;;3.80;99.90;;;;;;5057220;28;20835;-47
2022/01/20 03:59:36;;;;;;;9.77;6.23;;;3.80;99.90;;;;;;5061202;28;20225;-49
2022/01/20 04:02:02;;;;;;;11.20;7.80;;;3.90;99.90;;;;;;5058391;28;20220;-50
2022/01/20 04:04:27;;;;;;;11.87;8.03;;;3.90;99.90;;;;;;5059709;28;20274;-47
2022/01/20 04:06:54;;;;;;;8.10;6.93;;;3.90;99.90;;;;;;5059363;28;20436;-50
2022/01/20 04:09:20;;;;;;;14.13;7.83;;;3.90;99.90;;;;;;5058261;28;20691;-48
2022/01/20 04:11:45;;;;;;;8.60;6.77;;;3.90;99.90;;;;;;5060380;28;20417;-47
2022/01/20 04:14:13;;;;;;;9.80;7.60;;;3.90;99.90;;;;;;5058132;28;20187;-47
2022/01/20 04:19:39;;;;;;;9.90;6.20;;;3.90;99.90;;;;;;5009907;28;20456;-48
2022/01/20 04:22:05;;;;;;;9.70;7.30;;;3.90;99.90;;;;;;5060347;28;20414;-47
2022/01/20 04:24:31;;;;;;;10.90;8.00;;;3.90;99.90;;;;;;5064240;28;20186;-47
2022/01/20 04:26:56;;;;;;;12.40;8.10;;;3.80;99.90;;;;;;5049593;28;20183;-47
2022/01/20 04:29:22;;;;;;;11.20;7.40;;;3.90;99.90;;;;;;5066627;28;20548;-49
2022/01/20 04:31:50;;;;;;;14.20;7.87;;;3.90;99.90;;;;;;5064833;28;20175;-51
2022/01/20 04:34:16;;;;;;;13.97;7.43;;;3.90;99.90;;;;;;5059329;28;20187;-49
2022/01/20 04:36:45;;;;;;;8.63;7.13;;;4.00;99.90;;;;;;5064889;28;20930;-48
2022/01/20 04:39:16;;;;;;;14.20;8.10;;;4.00;99.90;;;;;;5061247;28;20207;-46
2022/01/20 04:41:42;;;;;;;10.00;7.50;;;4.00;99.90;;;;;;5063030;28;20457;-47
2022/01/20 04:44:13;;;;;;;13.83;8.10;;;3.90;99.90;;;;;;5063012;28;20422;-53
2022/01/20 04:46:47;;;;;;;12.23;8.30;;;4.00;99.90;;;;;;5061404;28;20422;-47
2022/01/20 04:57:21;;;;;;;15.10;9.87;;;4.00;99.90;;;;;;5062536;28;20430;-49
2022/01/20 04:59:50;;;;;;;14.70;9.27;;;4.00;99.90;;;;;;5064793;28;20575;-48
2022/01/20 05:02:16;;;;;;;12.20;8.70;;;3.90;99.90;;;;;;5060516;28;20438;-48
2022/01/20 05:04:42;;;;;;;14.93;8.47;;;3.90;99.90;;;;;;5063049;28;20504;-49
2022/01/20 05:07:10;;;;;;;13.43;9.20;;;4.00;99.90;;;;;;5065165;28;20525;-47
2022/01/20 05:09:36;;;;;;;15.20;9.93;;;4.00;99.90;;;;;;5051293;28;20465;-48
2022/01/20 05:12:11;;;;;;;12.87;9.40;;;3.90;99.90;;;;;;5066315;28;20426;-51
2022/01/20 05:14:37;;;;;;;14.73;9.40;;;3.90;99.90;;;;;;5059167;28;20414;-50
2022/01/20 05:17:03;;;;;;;12.73;9.60;;;3.90;99.90;;;;;;5064130;28;21029;-48
2022/01/20 05:19:31;;;;;;;13.40;9.50;;;3.90;99.90;;;;;;5058800;28;20610;-50
2022/01/20 05:21:58;;;;;;;12.73;8.67;;;3.90;99.90;;;;;;5064031;28;20421;-46
2022/01/20 05:24:24;;;;;;;15.80;9.70;;;3.90;99.90;;;;;;5062297;28;20500;-46
2022/01/20 05:26:50;;;;;;;14.80;9.83;;;3.90;99.90;;;;;;5062702;28;20517;-49
2022/01/20 05:29:17;;;;;;;12.30;10.03;;;3.90;99.90;;;;;;5063215;28;20468;-47
2022/01/20 05:31:43;;;;;;;13.30;9.77;;;3.90;99.90;;;;;;5060606;28;21017;-47
2022/01/20 05:34:08;;;;;;;13.23;9.63;;;3.90;99.90;;;;;;5061762;28;20434;-47
2022/01/20 05:36:34;;;;;;;12.70;8.87;;;4.00;99.90;;;;;;5061500;28;20179;-49
2022/01/20 05:39:00;;;;;;;11.50;8.67;;;4.00;99.90;;;;;;5049505;28;20206;-46
2022/01/20 05:41:26;;;;;;;17.00;11.03;;;4.00;99.90;;;;;;5059815;28;20555;-47
2022/01/20 05:43:51;;;;;;;14.40;10.63;;;3.90;99.90;;;;;;5060830;28;20532;-51
2022/01/20 05:46:22;;;;;;;14.70;10.27;;;3.90;99.90;;;;;;5049281;28;20175;-48
2022/01/20 05:48:48;;;;;;;12.00;9.20;;;3.90;99.90;;;;;;5059723;28;20601;-47
2022/01/20 05:51:15;;;;;;;15.23;9.67;;;4.00;99.90;;;;;;5062583;28;20523;-47
2022/01/20 05:53:41;;;;;;;12.23;9.60;;;4.00;99.90;;;;;;5062568;28;20433;-46
2022/01/20 05:56:07;;;;;;;16.60;9.80;;;4.00;99.90;;;;;;5062851;28;20819;-47
2022/01/20 05:58:37;;;;;;;14.10;9.53;;;4.00;99.90;;;;;;5016739;28;20794;-48
2022/01/20 06:01:07;;;;;;;14.00;10.03;;;4.00;99.90;;;;;;5057226;28;20441;-49
2022/01/20 06:03:36;;;;;;;16.17;9.60;;;4.00;99.90;;;;;;5061559;28;20453;-47
2022/01/20 06:06:11;;;;;;;14.73;10.50;;;4.00;99.90;;;;;;5056994;28;20421;-49
2022/01/20 06:08:38;;;;;;;16.30;9.97;;;4.10;99.90;;;;;;5060662;28;20428;-51
2022/01/20 06:11:04;;;;;;;16.07;10.80;;;4.10;99.90;;;;;;5048759;28;20997;-51
2022/01/20 06:13:30;;;;;;;14.97;11.37;;;4.10;99.90;;;;;;5058036;28;20802;-48
2022/01/20 06:15:56;;;;;;;15.03;10.20;;;4.10;99.90;;;;;;5029046;28;20433;-48
2022/01/20 06:18:21;;;;;;;16.07;10.73;;;4.00;99.90;;;;;;5061208;28;20244;-50
2022/01/20 06:20:48;;;;;;;13.27;9.60;;;4.00;99.90;;;;;;5063378;28;20823;-50
2022/01/20 06:23:14;;;;;;;21.37;12.20;;;4.00;99.90;;;;;;5060678;28;20183;-49
2022/01/20 06:25:41;;;;;;;18.87;12.53;;;4.00;99.90;;;;;;5058085;28;20493;-52
2022/01/20 06:28:07;;;;;;;15.57;10.13;;;4.10;99.90;;;;;;5060450;28;20229;-47
2022/01/20 06:30:33;;;;;;;15.70;11.33;;;4.10;99.90;;;;;;5060765;28;20465;-46
2022/01/20 06:32:59;;;;;;;15.87;10.17;;;4.10;99.90;;;;;;5049151;28;20840;-47
2022/01/20 06:35:25;;;;;;;19.33;11.03;;;4.10;99.90;;;;;;5059299;28;20679;-48
2022/01/20 06:37:50;;;;;;;15.83;11.17;;;4.00;99.90;;;;;;5060145;28;20710;-49
2022/01/20 06:40:17;;;;;;;16.93;11.87;;;4.10;99.90;;;;;;5044484;28;20206;-47
2022/01/20 06:42:42;;;;;;;17.90;11.93;;;4.10;99.90;;;;;;5055990;28;20214;-46
2022/01/20 06:45:11;;;;;;;17.80;11.80;;;4.00;99.90;;;;;;5059403;28;20437;-50
2022/01/20 06:47:36;;;;;;;16.60;11.90;;;4.00;99.90;;;;;;5058161;28;20239;-47
2022/01/20 06:50:04;;;;;;;16.27;11.20;;;4.00;99.90;;;;;;5061669;28;20864;-47
2022/01/20 06:52:29;;;;;;;17.20;12.27;;;4.00;99.90;;;;;;5061775;28;20179;-47
2022/01/20 06:54:56;;;;;;;17.33;12.37;;;4.00;99.90;;;;;;5060358;28;20960;-49
2022/01/20 06:57:21;;;;;;;20.97;11.67;;;4.00;99.90;;;;;;5048820;28;20271;-46
2022/01/20 06:59:51;;;;;;;19.50;10.60;;;4.00;99.90;;;;;;5060012;28;20905;-47
2022/01/20 07:02:17;;;;;;;16.87;11.00;;;4.10;99.90;;;;;;5058564;28;20456;-47
2022/01/20 07:04:44;;;;;;;17.23;11.07;;;4.10;99.90;;;;;;5058193;28;20421;-48
2022/01/20 07:07:09;;;;;;;17.37;11.33;;;4.10;99.90;;;;;;5056799;28;20184;-50
2022/01/20 07:09:36;;;;;;;15.63;11.80;;;4.20;99.90;;;;;;5063253;28;20461;-48
2022/01/20 07:12:02;;;;;;;17.20;12.37;;;4.20;99.90;;;;;;5059080;28;20187;-49
2022/01/20 07:14:29;;;;;;;15.23;11.93;;;4.20;99.90;;;;;;5060716;28;20425;-51
2022/01/20 07:16:55;;;;;;;16.63;11.53;;;4.20;99.90;;;;;;5058588;28;20519;-48
2022/01/20 07:19:21;;;;;;;16.30;10.87;;;4.20;99.90;;;;;;5059958;28;20622;-49
2022/01/20 07:21:46;;;;;;;18.53;11.87;;;4.20;99.90;;;;;;5062177;28;20848;-48
2022/01/20 07:24:12;;;;;;;17.10;12.20;;;4.30;99.90;;;;;;5053345;28;20184;-48
2022/01/20 07:26:38;;;;;;;15.70;10.90;;;4.30;99.90;;;;;;5063383;28;20308;-47
2022/01/20 07:29:04;;;;;;;15.37;10.70;;;4.30;99.90;;;;;;5056326;28;20578;-50
2022/01/20 07:31:30;;;;;;;17.60;11.70;;;4.30;99.90;;;;;;5059097;28;20673;-48
2022/01/20 07:33:56;;;;;;;15.63;10.80;;;4.40;99.90;;;;;;5060711;28;20171;-50
2022/01/20 07:36:21;;;;;;;13.40;9.00;;;4.40;99.90;;;;;;5043893;28;20788;-49
2022/01/20 07:38:47;;;;;;;17.13;11.67;;;4.40;99.90;;;;;;5063886;28;20206;-48
2022/01/20 07:41:12;;;;;;;15.60;11.30;;;4.40;99.90;;;;;;5059274;28;20191;-46
2022/01/20 07:43:40;;;;;;;15.30;9.00;;;4.40;99.90;;;;;;5059746;28;20188;-48
2022/01/20 07:46:06;;;;;;;19.80;11.30;;;4.40;99.90;;;;;;5060370;28;20187;-46
2022/01/20 07:48:32;;;;;;;19.07;11.00;;;4.30;99.90;;;;;;5060903;28;20507;-48
2022/01/20 07:50:57;;;;;;;17.23;10.20;;;4.40;99.90;;;;;;5046145;28;20453;-50
2022/01/20 07:53:23;;;;;;;17.70;10.53;;;4.30;99.90;;;;;;5058595;28;20433;-49
2022/01/20 07:55:50;;;;;;;18.03;11.93;;;4.40;99.90;;;;;;5064275;28;20180;-50
2022/01/20 07:58:15;;;;;;;14.40;10.10;;;4.30;99.90;;;;;;5063087;28;20179;-51
2022/01/20 08:00:41;;;;;;;16.83;10.10;;;4.40;99.90;;;;;;5064089;28;20486;-48
2022/01/20 08:03:07;;;;;;;16.50;9.77;;;4.30;99.90;;;;;;5065556;28;20221;-47
2022/01/20 08:05:32;;;;;;;16.93;11.20;;;4.30;99.90;;;;;;5059068;28;20198;-50
2022/01/20 08:07:58;;;;;;;17.17;11.70;;;4.30;99.90;;;;;;5065025;28;20175;-50
2022/01/20 08:10:24;;;;;;;11.80;7.80;;;4.20;99.90;;;;;;5061883;28;20243;-50
2022/01/20 08:12:49;;;;;;;17.97;11.33;;;4.10;99.90;;;;;;5063804;28;20181;-52
2022/01/20 08:15:15;;;;;;;14.00;10.70;;;4.10;99.90;;;;;;5066045;28;20638;-50
2022/01/20 08:17:42;;;;;;;17.30;10.57;;;4.10;99.90;;;;;;5063642;28;20188;-47
2022/01/20 08:20:08;;;;;;;12.63;7.77;;;4.10;99.90;;;;;;5063993;28;20285;-50
2022/01/20 08:22:34;;;;;;;16.03;11.00;;;4.20;99.90;;;;;;5061549;28;20791;-51
2022/01/20 08:25:02;;;;;;;15.87;11.30;;;4.20;99.90;;;;;;5063773;28;20857;-48
2022/01/20 08:27:28;;;;;;;18.10;10.70;;;4.20;99.90;;;;;;5063169;28;20504;-52
2022/01/20 08:29:53;;;;;;;24.53;11.70;;;4.30;99.90;;;;;;5062694;28;20563;-48
2022/01/20 08:32:19;;;;;;;14.20;10.00;;;4.30;99.90;;;;;;5047272;28;20174;-47
2022/01/20 08:34:44;;;;;;;13.27;10.30;;;4.30;99.90;;;;;;5043223;28;20194;-47
2022/01/20 08:37:10;;;;;;;20.93;12.13;;;4.30;99.90;;;;;;5066512;28;20183;-48
2022/01/20 08:39:40;;;;;;;16.80;11.20;;;4.40;99.90;;;;;;5063663;28;20199;-51
2022/01/20 08:42:06;;;;;;;15.87;10.77;;;4.40;99.90;;;;;;5066197;28;20190;-50
2022/01/20 08:44:32;;;;;;;16.30;10.20;;;4.30;99.90;;;;;;5060404;28;20429;-48
2022/01/20 08:47:01;;;;;;;19.40;10.70;;;4.30;99.90;;;;;;5046638;28;20490;-49
2022/01/20 08:49:27;;;;;;;17.70;9.30;;;4.30;99.90;;;;;;5050222;28;21397;-54
2022/01/20 08:51:53;;;;;;;17.27;10.77;;;4.40;99.90;;;;;;5060861;28;20420;-46
2022/01/20 08:54:19;;;;;;;18.67;10.57;;;4.40;99.90;;;;;;5063643;28;20601;-48
2022/01/20 08:56:45;;;;;;;21.27;11.50;;;4.40;99.90;;;;;;5060970;28;20632;-53
2022/01/20 08:59:12;;;;;;;20.00;10.67;;;4.50;99.90;;;;;;5062416;28;20880;-47
2022/01/20 09:01:40;;;;;;;15.40;10.07;;;4.50;99.90;;;;;;5066379;28;20442;-52
2022/01/20 09:04:07;;;;;;;19.80;12.07;;;4.60;99.90;;;;;;5055784;28;20838;-49
2022/01/20 09:06:33;;;;;;;15.83;11.07;;;4.60;99.90;;;;;;5063733;28;20515;-49
2022/01/20 09:08:59;;;;;;;19.77;10.00;;;4.60;99.90;;;;;;5060290;28;21041;-48
2022/01/20 09:11:31;;;;;;;20.33;10.70;;;4.70;99.90;;;;;;5060093;28;20540;-47
2022/01/20 09:16:43;;;;;;;15.90;11.13;;;4.60;99.90;;;;;;5061829;28;20461;-50
2022/01/20 09:19:09;;;;;;;17.30;10.37;;;4.70;99.90;;;;;;5062410;28;20504;-49
2022/01/20 09:21:35;;;;;;;14.90;9.80;;;4.70;99.90;;;;;;5066060;28;20427;-49
2022/01/20 09:24:01;;;;;;;15.03;8.50;;;4.80;99.90;;;;;;5042613;28;20847;-52
2022/01/20 09:26:27;;;;;;;16.97;9.50;;;4.80;99.90;;;;;;5051527;28;20430;-51
2022/01/20 09:28:53;;;;;;;10.30;7.67;;;4.80;99.90;;;;;;5059273;28;20195;-50
2022/01/20 09:31:24;;;;;;;15.80;9.83;;;4.80;99.90;;;;;;5060224;28;20472;-48
2022/01/20 09:33:51;;;;;;;16.53;8.10;;;4.80;99.90;;;;;;5059247;28;20171;-51
2022/01/20 09:36:16;;;;;;;14.47;9.20;;;4.80;99.90;;;;;;5057635;28;20537;-49
2022/01/20 09:38:43;;;;;;;16.63;9.70;;;4.80;99.90;;;;;;5048445;28;20967;-50
2022/01/20 09:41:08;;;;;;;18.90;9.37;;;4.80;99.90;;;;;;5031061;28;20187;-48
2022/01/20 09:43:35;;;;;;;13.73;9.17;;;4.80;99.90;;;;;;5064758;28;20798;-48
2022/01/20 09:46:01;;;;;;;16.80;9.37;;;4.80;99.90;;;;;;5061850;28;20449;-49
2022/01/20 09:48:31;;;;;;;14.83;10.10;;;4.90;99.90;;;;;;5058067;28;20909;-49
2022/01/20 09:50:59;;;;;;;10.60;7.50;;;4.90;99.90;;;;;;5063235;28;20872;-50
2022/01/20 09:53:26;;;;;;;15.00;9.47;;;4.90;99.90;;;;;;5062167;28;21691;-51
2022/01/20 09:55:52;;;;;;;18.23;9.50;;;4.90;99.90;;;;;;5059353;28;20765;-49
2022/01/20 09:58:17;;;;;;;14.20;9.23;;;4.90;99.90;;;;;;5063357;28;20460;-49
2022/01/20 10:00:45;;;;;;;13.37;8.30;;;4.90;99.90;;;;;;5060032;28;20211;-50
2022/01/20 10:03:16;;;;;;;23.40;12.00;;;5.00;99.90;;;;;;5064237;28;20183;-49
2022/01/20 10:05:45;;;;;;;23.30;12.37;;;5.00;99.90;;;;;;5059821;28;20433;-47
2022/01/20 10:08:10;;;;;;;16.33;9.47;;;5.00;99.90;;;;;;5049010;28;20588;-48
2022/01/20 10:10:40;;;;;;;17.50;8.87;;;5.10;99.90;;;;;;5062785;28;20457;-49
2022/01/20 10:13:08;;;;;;;15.77;10.00;;;5.10;99.90;;;;;;5056264;28;20184;-48
2022/01/20 10:15:33;;;;;;;16.70;11.33;;;5.10;99.90;;;;;;5058601;28;22924;-49
2022/01/20 10:18:07;;;;;;;16.83;9.40;;;5.10;99.90;;;;;;5059744;28;20547;-49
2022/01/20 10:20:33;;;;;;;21.00;10.33;;;5.10;99.90;;;;;;5060140;28;20210;-48
2022/01/20 10:22:59;;;;;;;17.90;10.10;;;5.20;99.90;;;;;;5062323;28;20409;-47
2022/01/20 10:25:25;;;;;;;16.33;10.20;;;5.20;99.90;;;;;;5055601;28;20436;-47
2022/01/20 10:27:57;;;;;;;13.90;8.30;;;5.40;99.90;;;;;;5063587;28;20447;-49
2022/01/20 10:30:26;;;;;;;20.67;9.23;;;5.40;99.90;;;;;;5057752;28;20222;-48
2022/01/20 10:32:57;;;;;;;22.33;10.47;;;5.40;99.90;;;;;;5060510;28;20452;-47
2022/01/20 10:35:32;;;;;;;12.73;8.33;;;5.50;99.90;;;;;;5060922;28;20496;-47
2022/01/20 10:38:13;;;;;;;10.97;8.83;;;5.50;99.90;;;;;;5061192;28;20432;-48
2022/01/20 10:40:59;;;;;;;14.57;8.97;;;5.50;99.90;;;;;;5051101;28;20492;-51
2022/01/20 10:43:27;;;;;;;16.73;9.40;;;5.40;99.90;;;;;;5061348;28;20563;-50
2022/01/20 10:46:11;;;;;;;13.67;7.67;;;5.40;99.90;;;;;;5060211;28;20494;-50
2022/01/20 10:48:37;;;;;;;21.10;8.07;;;5.40;99.90;;;;;;5062660;28;20445;-47
2022/01/20 10:51:13;;;;;;;15.30;8.77;;;5.30;99.90;;;;;;5058421;28;20469;-47
2022/01/20 10:53:39;;;;;;;23.03;9.97;;;5.30;99.90;;;;;;5063248;28;20441;-48
2022/01/20 10:56:06;;;;;;;16.50;9.63;;;5.30;99.90;;;;;;5060864;28;20510;-49
2022/01/20 10:58:32;;;;;;;27.27;10.10;;;5.30;99.90;;;;;;5032164;28;20183;-49
2022/01/20 11:00:59;;;;;;;16.00;8.80;;;5.40;99.90;;;;;;5062758;28;20432;-52
2022/01/20 11:03:27;;;;;;;16.23;8.27;;;5.30;99.90;;;;;;5059886;28;20432;-50
2022/01/20 11:05:56;;;;;;;15.03;8.57;;;5.40;99.90;;;;;;5059751;28;20415;-50
2022/01/20 11:08:22;;;;;;;16.40;9.00;;;5.40;99.90;;;;;;5060888;28;20784;-49
2022/01/20 11:10:50;;;;;;;27.20;9.63;;;5.40;99.90;;;;;;5059996;28;20461;-51
2022/01/20 11:13:17;;;;;;;16.40;9.67;;;5.40;99.90;;;;;;5061412;28;20409;-51
2022/01/20 11:15:44;;;;;;;12.97;8.70;;;5.50;99.90;;;;;;5041516;28;20557;-52
2022/01/20 11:18:10;;;;;;;17.90;10.30;;;5.40;99.90;;;;;;5063906;28;20422;-50
2022/01/20 11:20:42;;;;;;;21.43;9.77;;;5.50;99.90;;;;;;5061050;28;20450;-53
2022/01/20 11:23:08;;;;;;;10.30;7.60;;;5.40;99.90;;;;;;5061879;28;20455;-50
2022/01/20 11:25:37;;;;;;;13.10;7.87;;;5.40;99.90;;;;;;5058610;28;20436;-52
2022/01/20 11:28:07;;;;;;;17.23;9.60;;;5.40;99.90;;;;;;5040526;28;20195;-50
2022/01/20 11:30:35;;;;;;;14.40;7.67;;;5.50;99.90;;;;;;5053059;28;20590;-50
2022/01/20 11:33:03;;;;;;;19.70;9.60;;;5.60;99.90;;;;;;5062484;28;20435;-48
2022/01/20 11:35:56;;;;;;;22.23;8.67;;;5.60;99.90;;;;;;5064926;28;20431;-51
2022/01/20 11:38:35;;;;;;;14.80;8.63;;;5.70;99.90;;;;;;5062075;28;20448;-49
2022/01/20 11:41:02;;;;;;;15.43;9.07;;;5.80;99.90;;;;;;5059939;28;20433;-51
2022/01/20 11:43:35;;;;;;;14.00;8.20;;;5.80;99.90;;;;;;5065826;28;20904;-52
2022/01/20 11:46:16;;;;;;;12.53;7.53;;;5.90;99.90;;;;;;5064351;28;20466;-51
2022/01/20 11:49:01;;;;;;;15.80;8.07;;;6.00;99.90;;;;;;5061540;28;20782;-51
2022/01/20 11:51:40;;;;;;;15.57;7.60;;;6.10;99.90;;;;;;5065488;28;20831;-50
2022/01/20 11:54:06;;;;;;;18.07;8.23;;;6.20;99.90;;;;;;5061766;28;20950;-48
2022/01/20 11:56:41;;;;;;;15.10;8.00;;;6.20;99.90;;;;;;5059386;28;20442;-47
2022/01/20 11:59:08;;;;;;;6.17;3.60;;;6.30;99.90;;;;;;5067305;28;20694;-52
2022/01/20 12:01:52;;;;;;;6.03;1.93;;;6.20;99.90;;;;;;5061174;28;20425;-49
2022/01/20 12:04:40;;;;;;;5.17;2.20;;;5.80;99.90;;;;;;5063653;28;20468;-49
2022/01/20 12:07:06;;;;;;;3.40;1.90;;;5.50;99.90;;;;;;5062446;28;20982;-47
2022/01/20 12:09:37;;;;;;;6.13;2.60;;;5.30;99.90;;;;;;5041470;28;20460;-52
2022/01/20 12:12:06;;;;;;;4.23;3.00;;;5.10;99.90;;;;;;5067215;28;20412;-49
2022/01/20 12:14:36;;;;;;;4.53;2.77;;;5.00;99.90;;;;;;5060985;28;20458;-47
2022/01/20 12:17:07;;;;;;;5.40;2.33;;;5.00;99.90;;;;;;5051295;28;20429;-52
2022/01/20 12:19:33;;;;;;;4.40;2.90;;;5.20;99.90;;;;;;5066433;28;20439;-48
2022/01/20 12:22:01;;;;;;;3.50;2.40;;;5.20;99.90;;;;;;5063618;28;20934;-48
2022/01/20 12:24:27;;;;;;;5.17;2.80;;;5.10;99.90;;;;;;5061724;28;21029;-47
2022/01/20 12:26:52;;;;;;;11.60;2.93;;;4.90;99.90;;;;;;5063022;28;20507;-48
2022/01/20 12:29:18;;;;;;;4.07;2.33;;;4.80;99.90;;;;;;5063437;28;20203;-47
2022/01/20 12:31:50;;;;;;;3.50;2.73;;;4.90;99.90;;;;;;5062911;28;20210;-48
2022/01/20 12:34:16;;;;;;;9.27;2.70;;;4.90;99.90;;;;;;5045241;28;20430;-50
2022/01/20 12:36:53;;;;;;;8.80;3.07;;;5.00;99.90;;;;;;5066917;28;20508;-50
2022/01/20 12:39:28;;;;;;;5.43;2.47;;;4.80;99.90;;;;;;5060354;28;20436;-51
2022/01/20 12:42:13;;;;;;;9.90;2.70;;;4.70;99.90;;;;;;5060127;28;20527;-53
2022/01/20 12:45:54;;;;;;;8.13;3.03;;;4.70;99.90;;;;;;5063535;28;20486;-49
2022/01/20 12:47:33;;;;;;;7.70;3.80;;;4.50;99.90;;;;;;5059899;28;20824;-52
2022/01/20 12:50:00;;;;;;;4.60;3.27;;;4.40;99.90;;;;;;5063230;28;20466;-52
2022/01/20 12:52:26;;;;;;;6.37;2.80;;;4.30;99.90;;;;;;5042990;28;20178;-50
2022/01/20 12:54:52;;;;;;;3.37;1.87;;;4.20;99.90;;;;;;5057308;28;21074;-50
2022/01/20 12:57:19;;;;;;;5.57;3.33;;;4.20;99.90;;;;;;5062814;28;20525;-51
2022/01/20 12:59:46;;;;;;;4.67;2.70;;;4.10;99.90;;;;;;5059347;28;20572;-51
2022/01/20 13:02:23;;;;;;;5.67;2.87;;;4.20;99.90;;;;;;5065285;28;20425;-49
2022/01/20 13:04:55;;;;;;;7.20;3.40;;;4.20;99.90;;;;;;5061851;28;20448;-51
2022/01/20 13:07:21;;;;;;;6.13;2.77;;;4.20;99.90;;;;;;5060985;28;20421;-50
2022/01/20 13:10:02;;;;;;;10.40;2.80;;;4.40;99.90;;;;;;5064358;28;21072;-51
2022/01/20 13:12:38;;;;;;;7.47;3.20;;;4.40;99.90;;;;;;5056313;28;20417;-51
2022/01/20 13:15:25;;;;;;;6.27;3.63;;;4.50;99.90;;;;;;5045715;28;20926;-52
2022/01/20 13:18:06;;;;;;;3.50;2.73;;;4.60;99.90;;;;;;5062838;28;20425;-51
2022/01/20 13:20:33;;;;;;;10.57;3.63;;;4.70;99.90;;;;;;5060535;28;20453;-47
2022/01/20 13:23:54;;;;;;;6.47;2.70;;;4.90;99.90;;;;;;5064191;28;20460;-51
2022/01/20 13:26:04;;;;;;;5.33;2.67;;;5.00;99.90;;;;;;5059653;28;20429;-51
2022/01/20 13:28:29;;;;;;;6.30;3.30;;;5.00;99.90;;;;;;5058904;28;20432;-48
2022/01/20 13:30:55;;;;;;;3.70;3.10;;;4.90;99.90;;;;;;5064271;28;20457;-49
2022/01/20 13:33:23;;;;;;;10.13;3.13;;;5.00;99.90;;;;;;5040804;28;20190;-52
2022/01/20 13:35:59;;;;;;;8.60;3.03;;;4.90;99.90;;;;;;5062757;28;20172;-51
2022/01/20 13:38:33;;;;;;;6.37;2.73;;;4.90;99.90;;;;;;5061814;28;20433;-53
2022/01/20 13:41:11;;;;;;;8.60;3.70;;;5.00;99.90;;;;;;5055574;28;20954;-50
2022/01/20 13:46:40;;;;;;;5.73;3.43;;;5.30;99.90;;;;;;5066451;28;20692;-51
2022/01/20 13:49:21;;;;;;;11.87;3.27;;;5.40;99.90;;;;;;5058499;28;20466;-51
2022/01/20 13:52:03;;;;;;;6.77;3.10;;;5.30;99.90;;;;;;5060349;28;20422;-51
2022/01/20 13:54:40;;;;;;;6.43;3.23;;;5.50;99.90;;;;;;5059175;28;20430;-51
2022/01/20 13:57:07;;;;;;;4.97;2.50;;;5.50;99.90;;;;;;5060217;28;20441;-50
2022/01/20 13:59:32;;;;;;;8.93;3.30;;;5.30;99.90;;;;;;5061489;28;20483;-48
2022/01/20 14:01:58;;;;;;;9.47;3.20;;;5.30;99.90;;;;;;5058649;28;20446;-53